• Join FlightAware (Why Join?)
  • Login
  • US Flag 
01:39PM EDT


 

Airport Tracker/Info


-or-


 

Live Flight TrackerFlight Track Log ✈ ASQ5874 ✈ 03-Dec-2013 ✈ KICT - KORD

Flight Track Log - Related Links

Times and Time Zones

All times are in EST time to prevent confusion due to time zone crossing. See the ASQ5874 flight status page for this flight to view local times or setup timezone preferences in your user account.

Time Position Orientation Groundspeed Altitude Reporting Facility
EST Latitude Longitude Course Direction KTS MPH feet Rate Location/Type
07:00AM 37.6581 -97.4356 351° North 163 188 1,600  Level Kansas City Center
07:01AM 37.6761 -97.4275 19° North 178 205 2,300 1,740 Climbing Kansas City Center
07:02AM 37.7342 -97.4186 North 221 254 4,100 1,380 Climbing Kansas City Center
07:02AM 37.7317 -97.4186 180° South 200 230 4,000 1,680 Descending Kansas City Center
07:03AM 37.8069 -97.4100 North 259 298 6,000 2,160 Climbing Kansas City Center
07:03AM 37.8133 -97.4106 356° North 250 288 6,100 2,280 Climbing Kansas City Center
07:04AM 37.8881 -97.4028 North 281 323 8,400 2,100 Climbing Kansas City Center
07:04AM 37.8892 -97.4019 31° Northeast 271 312 8,300 1,800 Descending Kansas City Center
07:05AM 37.9477 -96.8623 65° Northeast  Level Estimated
07:05AM 37.9681 -97.3933 North 284 327 10,300  Level Kansas City Center
07:06AM 38.0543 -96.8848 351° North  Level FlightAware Approximate
07:06AM 38.0550 -97.3842 North 311 358 11,500  Level Kansas City Center
07:07AM 38.1528 -97.3725 North 351 404 12,400 1,020 Climbing Kansas City Center
07:08AM 38.2519 -97.3231 21° North 384 442 13,600 1,380 Climbing Kansas City Center
07:09AM 38.3506 -97.2711 22° Northeast 385 443 15,200 1,560 Climbing Kansas City Center
07:10AM 38.4417 -97.2058 29° Northeast 385 443 16,800 1,800 Climbing Kansas City Center
07:11AM 38.4906 -97.0836 63° Northeast 389 448 18,800 1,500 Climbing Kansas City Center
07:12AM 38.5353 -96.9558 66° East 393 452 19,900 1,080 Climbing Kansas City Center
07:13AM 38.5825 -96.8219 66° East 409 471 21,000 960 Climbing Kansas City Center
07:14AM 38.6281 -96.6906 66° East 424 488 21,900 960 Climbing Kansas City Center
07:15AM 38.6836 -96.5328 66° East 435 501 23,000 1,020 Climbing Kansas City Center
07:16AM 38.7306 -96.3947 66° East 442 509 24,000 960 Climbing Kansas City Center
07:17AM 38.7786 -96.2575 66° East 443 510 25,000 1,080 Climbing Kansas City Center
07:18AM 38.8336 -96.0939 67° East 446 513 26,300 1,260 Climbing Kansas City Center
07:19AM 38.8806 -95.9572 66° East 440 506 27,500 1,140 Climbing Kansas City Center
07:20AM 38.9258 -95.8219 67° East 433 498 28,600 960 Climbing Kansas City Center
07:21AM 38.9808 -95.6633 66° East 435 501 29,500 720 Climbing Kansas City Center
07:22AM 39.0278 -95.5208 67° East 452 520 30,100 600 Climbing Kansas City Center
07:23AM 39.0814 -95.3600 67° East 466 536 30,800 1,020 Climbing Kansas City Center
07:24AM 39.1336 -95.2000 67° East 465 535 32,200 1,320 Climbing Kansas City Center
07:25AM 39.1761 -95.0678 67° East 452 520 33,600 1,320 Climbing Kansas City Center
07:26AM 39.2292 -94.9069 67° East 441 507 35,000 660 Climbing Kansas City Center
07:27AM 39.2744 -94.7656 67° East 442 509 35,000  Level Kansas City Center
07:28AM 39.3314 -94.6228 63° Northeast 459 528 35,000  Level Kansas City Center
07:29AM 39.4025 -94.4508 62° Northeast 485 558 35,000  Level Kansas City Center
07:30AM 39.4628 -94.3019 62° Northeast 488 562 35,000  Level Kansas City Center
07:31AM 39.5225 -94.1544 62° Northeast 483 556 35,000  Level Kansas City Center
07:32AM 39.5808 -94.0086 63° Northeast 478 550 35,000  Level Kansas City Center
07:33AM 39.6494 -93.8369 63° Northeast 480 552 35,000  Level Kansas City Center
07:34AM 39.7039 -93.7014 62° Northeast 481 554 35,000  Level Kansas City Center
07:35AM 39.7636 -93.5483 63° Northeast 479 551 35,000  Level Kansas City Center
07:36AM 39.8356 -93.3653 63° Northeast 478 550 35,000  Level Kansas City Center
07:37AM 39.8972 -93.2128 62° Northeast 480 552 35,000  Level Kansas City Center
07:38AM 39.9561 -93.0575 64° Northeast 483 556 35,000  Level Kansas City Center
07:39AM 40.0161 -92.9011 63° Northeast 485 558 35,000  Level Kansas City Center
07:40AM 40.0747 -92.7475 63° Northeast 485 558 35,000  Level Kansas City Center
07:41AM 40.1319 -92.5967 64° Northeast 484 557 35,000  Level Kansas City Center
07:42AM 40.2006 -92.4200 63° Northeast 483 556 35,000  Level Kansas City Center
07:43AM 40.2475 -92.2828 66° East 484 557 35,000  Level Kansas City Center
07:44AM 40.3144 -92.0942 65° Northeast 484 557 35,000  Level Kansas City Center
07:45AM 40.3708 -91.9356 65° Northeast 484 557 35,000  Level Kansas City Center
07:46AM 40.4269 -91.7769 65° Northeast 483 556 35,000  Level Kansas City Center
07:47AM 40.4803 -91.6169 66° East 483 556 35,000  Level Kansas City Center
07:48AM 40.5344 -91.4578 66° East 482 555 35,000  Level Kansas City Center
07:49AM 40.5883 -91.2978 66° East 481 554 35,000  Level Kansas City Center
07:50AM 40.6311 -91.1786 65° Northeast 483 556 35,000 -480 Level Chicago Center
07:51AM 40.6844 -91.0161 67° East 483 556 34,300 -720 Descending Chicago Center
07:52AM 40.7397 -90.8542 66° East 485 558 33,600 -1,020 Descending Chicago Center
07:53AM 40.7942 -90.6914 66° East 482 555 32,300 -1,380 Descending Chicago Center
07:54AM 40.8481 -90.5306 66° East 480 552 30,800 -1,560 Descending Chicago Center
07:55AM 40.9075 -90.3708 64° Northeast 481 554 29,200 -1,500 Descending Chicago Center
07:56AM 40.9672 -90.2131 63° Northeast 479 551 27,800 -1,500 Descending Chicago Center
07:57AM 41.0278 -90.0511 64° Northeast 482 555 26,200 -1,560 Descending Chicago Center
07:58AM 41.0869 -89.8886 64° Northeast 485 558 24,700 -1,500 Descending Chicago Center
07:59AM 41.1475 -89.7269 64° Northeast 485 558 23,200 -1,620 Descending Chicago Center
08:00AM 41.2153 -89.5389 64° Northeast 465 535 21,400 -1,680 Descending Chicago Center
08:01AM 41.2658 -89.3994 64° Northeast 424 488 19,800 -1,560 Descending Chicago Center
08:02AM 41.3142 -89.2661 64° Northeast 403 464 18,300 -1,440 Descending Chicago Center
08:03AM 41.3564 -89.1503 64° Northeast 378 435 16,900 -1,500 Descending Chicago Center
08:04AM 41.3969 -89.0333 65° Northeast 352 405 15,300 -1,800 Descending Chicago Center
08:05AM 41.4464 -88.8931 65° Northeast 350 403 13,300 -1,620 Descending Chicago Center
08:06AM 41.4872 -88.7811 64° Northeast 339 390 12,000 -660 Descending Chicago Center
08:07AM 41.5225 -88.6819 65° Northeast 305 351 12,000  Level Chicago Center
08:08AM 41.5594 -88.5883 62° Northeast 290 334 12,000  Level Chicago Center
08:09AM 41.6119 -88.5033 50° Northeast 295 339 12,000 -360 Level Chicago Center
08:10AM 41.6669 -88.4242 47° Northeast 293 337 11,300 -780 Descending Chicago Center
08:12AM 41.7108 -88.3483 52° Northeast 261 300 10,400 -1,080 Descending Chicago Center
08:13AM 41.7639 -88.2625 50° Northeast 249 287 9,200 -720 Descending Chicago Center
08:14AM 41.8053 -88.1947 51° Northeast 236 272 9,000 -120 Descending Chicago Center
08:15AM 41.8611 -88.1758 14° North 220 253 9,000  Level Chicago Center
08:16AM 41.8947 -88.2194 316° Northwest 197 227 9,000  Level Chicago Center
08:17AM 41.9058 -88.2881 282° West 191 220 9,000 -180 Level Chicago Center
08:18AM 41.9142 -88.3511 280° West 179 206 8,700 -540 Descending Chicago Center
08:19AM 41.9156 -88.4264 271° West 171 197 8,000 -360 Descending Chicago Center
08:20AM 41.9164 -88.4917 271° West 174 200 8,000 -420 Level Chicago Center
08:21AM 41.9611 -88.5139 340° North 206 237 7,200 -540 Descending Chicago Center
08:22AM 41.9819 -88.4492 67° East 214 246 7,000 -120 Descending Chicago Center
08:23AM 41.9833 -88.3667 89° East 219 252 7,000 -300 Level Chicago Center
08:24AM 41.9828 -88.2878 91° East 215 247 6,400 -1,020 Descending Chicago Center
08:25AM 41.9822 -88.1961 90° East 210 242 4,900 -1,260 Descending Chicago Center
08:26AM 41.9828 -88.1225 89° East 204 235 3,800 -1,140 Descending Chicago Center
08:27AM 41.9833 -88.0500 89° East 185 213 2,800 -1,020 Descending Chicago TRACON
08:28AM 41.9833 -88.0000 90° East 144 166 1,900 -900 Descending Chicago TRACON